createdAt,value
2019-03-18T00:00:53.357Z,97883.59
2019-03-18T00:03:22.682Z,97874.91
2019-03-18T00:05:51.943Z,97885.48
2019-03-18T00:08:21.223Z,97889.16
2019-03-18T00:10:50.517Z,97903.78
2019-03-18T00:13:38.850Z,97891.09
2019-03-18T00:16:08.200Z,97904.63
2019-03-18T00:18:37.489Z,97902.86
2019-03-18T00:21:06.760Z,97903.89
2019-03-18T00:23:36.053Z,97899.73
2019-03-18T00:26:05.316Z,97904.96
2019-03-18T00:28:34.652Z,97907.92
2019-03-18T00:31:03.933Z,97906.38
2019-03-18T00:33:33.232Z,97914.69
2019-03-18T00:36:02.524Z,97922.53
2019-03-18T00:38:31.813Z,97934.67
2019-03-18T00:41:01.125Z,97931.22
2019-03-18T00:43:30.397Z,97938.95
2019-03-18T00:45:59.674Z,97942.14
2019-03-18T00:48:28.960Z,97937.29
2019-03-18T00:50:58.229Z,97951.28
2019-03-18T00:53:27.527Z,97931.33
2019-03-18T00:55:56.860Z,97947.25
2019-03-18T00:58:26.185Z,97946.80
2019-03-18T01:00:55.487Z,97949.41
2019-03-18T01:03:24.816Z,97956.29
2019-03-18T01:05:54.130Z,97944.53
2019-03-18T01:08:23.416Z,97948.45
2019-03-18T01:10:52.717Z,97949.19
2019-03-18T01:13:22.033Z,97953.45
2019-03-18T01:15:51.320Z,97959.64
2019-03-18T01:18:20.591Z,97952.02
2019-03-18T01:20:49.886Z,97956.78
2019-03-18T01:23:19.179Z,97966.75
2019-03-18T01:25:48.449Z,97966.97
2019-03-18T01:28:17.742Z,97964.96
2019-03-18T01:30:47.033Z,97963.05
2019-03-18T01:33:16.300Z,97969.59
2019-03-18T01:35:45.593Z,97980.78
2019-03-18T01:38:14.895Z,97961.04
2019-03-18T01:40:44.165Z,97967.80
2019-03-18T01:43:13.476Z,97967.28
2019-03-18T01:45:42.749Z,97964.89
2019-03-18T01:48:12.083Z,97965.98
2019-03-18T01:50:41.372Z,97969.89
2019-03-18T01:53:10.647Z,97971.09
2019-03-18T01:55:39.929Z,97976.21
2019-03-18T01:58:09.200Z,97969.33
2019-03-18T02:00:38.485Z,97966.71
2019-03-18T02:03:07.768Z,97978.48
2019-03-18T02:05:37.050Z,97977.88
2019-03-18T02:08:06.349Z,97973.25
2019-03-18T02:10:35.632Z,97979.56
2019-03-18T02:13:04.921Z,97980.27
2019-03-18T02:15:34.212Z,97981.95
2019-03-18T02:18:03.482Z,97984.34
2019-03-18T02:20:32.770Z,97982.44
2019-03-18T02:23:02.052Z,97983.28
2019-03-18T02:25:31.348Z,97990.44
2019-03-18T02:28:00.672Z,97996.98
2019-03-18T02:30:29.939Z,97998.64
2019-03-18T02:32:59.279Z,97996.02
2019-03-18T02:35:28.569Z,98007.05
2019-03-18T02:38:16.898Z,98019.20
2019-03-18T02:40:58.077Z,98020.29
2019-03-18T02:46:10.094Z,98017.89
2019-03-18T02:48:33.515Z,98017.16
2019-03-18T02:51:02.794Z,98025.00
2019-03-18T02:53:32.054Z,98025.84
2019-03-18T02:56:01.345Z,98029.28
2019-03-18T02:58:30.614Z,98026.66
2019-03-18T03:01:18.942Z,98027.62
2019-03-18T03:03:48.217Z,98029.50
2019-03-18T03:06:17.497Z,98023.45
2019-03-18T03:09:05.683Z,98026.88
2019-03-18T03:11:34.968Z,98026.88
2019-03-18T03:14:04.227Z,98033.06
2019-03-18T03:16:33.534Z,98034.72
2019-03-18T03:19:02.817Z,98042.95
2019-03-18T03:21:32.114Z,98043.66
2019-03-18T03:24:01.402Z,98048.53
2019-03-18T03:26:30.669Z,98051.04
2019-03-18T03:28:59.948Z,98058.77
2019-03-18T03:31:29.289Z,98049.84
2019-03-18T03:33:58.802Z,98065.31
2019-03-18T03:36:29.626Z,98060.76
2019-03-18T03:38:58.894Z,98053.77
2019-03-18T03:41:28.355Z,98062.23
2019-03-18T03:43:57.678Z,98060.44
2019-03-18T03:46:41.824Z,98075.91
2019-03-18T03:48:58.002Z,98080.21
2019-03-18T03:51:27.287Z,98092.41
2019-03-18T03:53:56.656Z,98086.52
2019-03-18T03:56:25.982Z,98087.66
2019-03-18T03:58:55.385Z,98092.75
2019-03-18T04:01:24.739Z,98101.76
2019-03-18T04:04:13.069Z,98116.34
2019-03-18T04:06:42.335Z,98108.93
2019-03-18T04:09:11.621Z,98115.81
2019-03-18T04:11:40.910Z,98124.08
2019-03-18T04:14:10.187Z,98127.64
2019-03-18T04:16:39.498Z,98134.24
2019-03-18T04:19:08.806Z,98134.45
2019-03-18T04:21:38.080Z,98144.27
2019-03-18T04:24:07.384Z,98153.87
2019-03-18T04:26:36.715Z,98150.22
2019-03-18T04:29:05.999Z,98147.95
2019-03-18T04:31:35.257Z,98150.95
2019-03-18T04:34:04.555Z,98156.00
2019-03-18T04:36:33.858Z,98157.72
2019-03-18T04:41:53.095Z,98171.72
2019-03-18T04:44:22.408Z,98178.81
2019-03-18T04:46:51.673Z,98188.55
2019-03-18T04:49:39.932Z,98186.39
2019-03-18T04:52:09.222Z,98188.34
2019-03-18T04:54:38.725Z,98197.09
2019-03-18T04:57:08.040Z,98205.98
2019-03-18T04:59:56.226Z,98212.45
2019-03-18T05:02:25.591Z,98218.78
2019-03-18T05:04:54.887Z,98215.78
2019-03-18T05:07:24.430Z,98233.34
2019-03-18T05:09:53.672Z,98241.37
2019-03-18T05:12:22.923Z,98238.77
2019-03-18T05:14:52.222Z,98252.97
2019-03-18T05:17:26.453Z,98263.41
2019-03-18T05:19:52.565Z,98258.75
2019-03-18T05:22:21.856Z,98266.02
2019-03-18T05:24:51.164Z,98272.00
2019-03-18T05:27:20.447Z,98285.91
2019-03-18T05:29:49.720Z,98288.22
2019-03-18T05:32:18.996Z,98294.19
2019-03-18T05:34:48.313Z,98299.41
2019-03-18T05:37:17.582Z,98307.22
2019-03-18T05:39:46.863Z,98303.30
2019-03-18T05:42:16.199Z,98313.75
2019-03-18T05:44:45.465Z,98324.38
2019-03-18T05:47:14.744Z,98322.16
2019-03-18T05:50:02.929Z,98338.58
2019-03-18T05:52:32.204Z,98347.55
2019-03-18T05:55:01.486Z,98343.14
2019-03-18T05:57:30.770Z,98352.56
2019-03-18T06:03:07.790Z,98363.20
2019-03-18T06:05:37.153Z,98370.02
2019-03-18T06:08:06.462Z,98377.37
2019-03-18T06:10:37.097Z,98386.15
2019-03-18T06:13:06.483Z,98387.17
2019-03-18T06:15:38.630Z,98397.44
2019-03-18T06:18:12.422Z,98400.87
2019-03-18T06:20:41.698Z,98403.48
2019-03-18T06:23:11.000Z,98403.48
2019-03-18T06:25:40.540Z,98413.37
2019-03-18T06:28:09.812Z,98429.22
2019-03-18T06:30:39.130Z,98424.76
2019-03-18T06:33:16.536Z,98443.59
2019-03-18T06:35:46.098Z,98443.02
2019-03-18T06:38:15.580Z,98459.88
2019-03-18T06:40:45.163Z,98454.75
2019-03-18T06:43:14.940Z,98470.06
2019-03-18T06:45:44.549Z,98478.83
2019-03-18T06:48:14.241Z,98481.14
2019-03-18T06:50:44.204Z,98483.20
2019-03-18T06:53:13.782Z,98493.55
2019-03-18T06:58:19.260Z,98512.77
2019-03-18T07:00:48.531Z,98519.56
2019-03-18T07:03:17.816Z,98525.05
2019-03-18T07:05:47.153Z,98524.51
2019-03-18T07:08:16.655Z,98534.59
2019-03-18T07:10:46.319Z,98541.30
2019-03-18T07:13:15.577Z,98545.39
2019-03-18T07:15:44.933Z,98556.11
2019-03-18T07:18:18.641Z,98554.98
2019-03-18T07:20:45.432Z,98564.39
2019-03-18T07:23:14.721Z,98578.94
2019-03-18T07:25:44.080Z,98575.41
2019-03-18T07:28:13.775Z,98581.36
2019-03-18T07:30:45.362Z,98589.20
2019-03-18T07:33:14.868Z,98595.45
2019-03-18T07:35:44.342Z,98608.31
2019-03-18T07:38:13.907Z,98624.34
2019-03-18T07:40:43.452Z,98624.34
2019-03-18T07:43:13.300Z,98632.86
2019-03-18T07:45:42.919Z,98645.50
2019-03-18T07:48:12.750Z,98641.23
2019-03-18T07:53:50.763Z,98665.72
2019-03-18T07:56:20.312Z,98675.95
2019-03-18T07:58:49.609Z,98674.47
2019-03-18T08:01:18.873Z,98677.66
2019-03-18T08:03:48.240Z,98684.96
2019-03-18T08:06:17.535Z,98689.60
2019-03-18T08:11:35.071Z,98695.10
2019-03-18T08:14:04.390Z,98697.34
2019-03-18T08:16:33.674Z,98707.89
2019-03-18T08:19:02.938Z,98723.79
2019-03-18T08:21:32.207Z,98739.81
2019-03-18T08:24:01.487Z,98745.77
2019-03-18T08:26:30.786Z,98742.80
2019-03-18T08:29:00.100Z,98745.59
2019-03-18T08:31:29.370Z,98759.00
2019-03-18T08:33:58.656Z,98773.42
2019-03-18T08:36:27.938Z,98774.84
2019-03-18T08:38:57.228Z,98786.52
2019-03-18T08:41:26.513Z,98789.89
2019-03-18T08:43:55.775Z,98801.06
2019-03-18T08:46:25.098Z,98761.23
2019-03-18T08:48:56.030Z,98818.47
2019-03-18T08:51:25.401Z,98825.14
2019-03-18T08:53:54.716Z,98835.59
2019-03-18T08:56:43.048Z,98843.83
2019-03-18T08:59:12.322Z,98845.72
2019-03-18T09:01:41.604Z,98859.58
2019-03-18T09:06:59.203Z,98867.59
2019-03-18T09:09:47.534Z,98868.56
2019-03-18T09:12:16.818Z,98874.51
2019-03-18T09:15:05.492Z,98893.12
2019-03-18T09:17:34.824Z,98899.17
2019-03-18T09:20:04.371Z,98907.35
2019-03-18T09:22:33.652Z,98911.16
2019-03-18T09:25:02.919Z,98917.54
2019-03-18T09:27:32.219Z,98922.58
2019-03-18T09:30:01.514Z,98922.00
2019-03-18T09:32:30.784Z,98935.13
2019-03-18T09:35:00.171Z,98943.34
2019-03-18T09:37:50.035Z,98958.83
2019-03-18T09:40:19.463Z,98943.16
2019-03-18T09:42:48.725Z,98968.20
2019-03-18T09:45:18.192Z,98964.97
2019-03-18T09:47:47.445Z,98971.33
2019-03-18T09:50:16.936Z,98979.17
2019-03-18T09:52:46.210Z,98993.33
2019-03-18T09:55:15.500Z,99002.48
2019-03-18T09:57:44.767Z,99009.72
2019-03-18T10:00:55.559Z,99016.46
2019-03-18T10:03:24.384Z,99020.95
2019-03-18T10:05:53.667Z,99026.08
2019-03-18T10:08:25.120Z,99025.39
2019-03-18T10:10:53.923Z,99028.78
2019-03-18T10:13:23.226Z,99040.31
2019-03-18T10:15:52.481Z,99040.67
2019-03-18T10:18:21.778Z,99047.23
2019-03-18T10:20:51.055Z,99054.70
2019-03-18T10:23:20.338Z,99062.10
2019-03-18T10:25:49.609Z,99072.79
2019-03-18T10:28:18.893Z,99087.77
2019-03-18T10:30:48.155Z,99093.82
2019-03-18T10:33:17.427Z,99110.41
2019-03-18T10:35:46.714Z,99102.92
2019-03-18T10:38:15.974Z,99111.02
2019-03-18T10:40:45.255Z,99113.14
2019-03-18T10:43:14.529Z,99111.46
2019-03-18T10:45:43.798Z,99120.66
2019-03-18T10:48:13.079Z,99130.17
2019-03-18T10:50:42.361Z,99129.34
2019-03-18T10:53:11.693Z,99137.55
2019-03-18T10:55:40.929Z,99143.69
2019-03-18T10:58:10.205Z,99146.22
2019-03-18T11:00:39.511Z,99157.83
2019-03-18T11:03:08.774Z,99165.17
2019-03-18T11:05:38.048Z,99154.70
2019-03-18T11:08:07.419Z,99162.78
2019-03-18T11:10:36.692Z,99174.59
2019-03-18T11:13:05.979Z,99177.05
2019-03-18T11:15:35.259Z,99187.27
2019-03-18T11:18:04.530Z,99200.49
2019-03-18T11:20:33.809Z,99197.53
2019-03-18T11:23:03.073Z,99201.91
2019-03-18T11:25:32.338Z,99208.52
2019-03-18T11:28:01.611Z,99201.80
2019-03-18T11:30:30.900Z,99204.08
2019-03-18T11:33:00.267Z,99207.57
2019-03-18T11:35:29.551Z,99224.43
2019-03-18T11:37:58.826Z,99236.44
2019-03-18T11:40:28.117Z,99230.23
2019-03-18T11:42:57.446Z,99241.09
2019-03-18T11:45:26.753Z,99256.75
2019-03-18T11:47:56.016Z,99259.11
2019-03-18T11:50:25.386Z,99258.83
2019-03-18T11:52:54.678Z,99260.16
2019-03-18T11:55:24.073Z,99276.84
2019-03-18T11:57:53.358Z,99280.80
2019-03-18T12:00:22.746Z,99276.93
2019-03-18T12:02:52.035Z,99280.61
2019-03-18T12:05:21.360Z,99287.92
2019-03-18T12:07:50.640Z,99294.39
2019-03-18T12:10:19.933Z,99288.81
2019-03-18T12:12:49.214Z,99296.58
2019-03-18T12:15:21.386Z,99308.63
2019-03-18T12:17:49.611Z,99310.82
2019-03-18T12:20:24.618Z,99317.88
2019-03-18T12:22:49.882Z,99321.27
2019-03-18T12:25:19.178Z,99348.03
2019-03-18T12:27:48.482Z,99340.86
2019-03-18T12:30:18.270Z,99334.67
2019-03-18T12:32:47.563Z,99340.08
2019-03-18T12:35:16.831Z,99342.02
2019-03-18T12:37:46.199Z,99353.10
2019-03-18T12:40:15.631Z,99357.04
2019-03-18T12:42:44.905Z,99359.66
2019-03-18T12:45:53.568Z,99363.44
2019-03-18T12:48:22.836Z,99369.56
2019-03-18T12:50:56.126Z,99381.28
2019-03-18T12:53:23.122Z,99377.77
2019-03-18T12:55:53.091Z,99385.84
2019-03-18T12:58:23.409Z,99390.00
2019-03-18T13:00:52.685Z,99396.75
2019-03-18T13:03:21.955Z,99406.30
2019-03-18T13:05:51.228Z,99408.20
2019-03-18T13:08:20.495Z,99411.02
2019-03-18T13:10:49.776Z,99414.80
2019-03-18T13:13:19.070Z,99415.38
2019-03-18T13:15:48.339Z,99428.83
2019-03-18T13:18:17.642Z,99431.77
2019-03-18T13:20:46.906Z,99436.91
2019-03-18T13:23:16.175Z,99443.73
2019-03-18T13:25:45.469Z,99442.66
2019-03-18T13:28:14.747Z,99457.44
2019-03-18T13:30:44.023Z,99448.81
2019-03-18T13:33:13.298Z,99455.61
2019-03-18T13:35:43.208Z,99470.27
2019-03-18T13:38:32.624Z,99473.45
2019-03-18T13:41:01.924Z,99473.45
2019-03-18T13:43:31.227Z,99480.39
2019-03-18T13:46:00.494Z,99473.48
2019-03-18T13:48:29.794Z,99480.05
2019-03-18T13:50:59.053Z,99501.45
2019-03-18T13:53:28.396Z,99485.98
2019-03-18T13:56:16.710Z,99508.20
2019-03-18T13:58:45.981Z,99466.52
2019-03-18T14:01:15.249Z,99466.52
2019-03-18T14:03:44.528Z,99503.52
2019-03-18T14:06:13.857Z,99512.14
2019-03-18T14:09:02.169Z,99524.55
2019-03-18T14:11:31.451Z,99524.55
2019-03-18T14:14:00.753Z,99531.67
2019-03-18T14:16:30.052Z,99532.44
2019-03-18T14:18:59.369Z,99550.07
2019-03-18T14:21:33.227Z,99552.51
2019-03-18T14:23:59.692Z,99555.23
2019-03-18T14:26:28.967Z,99558.17
2019-03-18T14:32:26.095Z,99565.79
2019-03-18T14:34:55.409Z,99584.46
2019-03-18T14:37:24.807Z,99588.63
2019-03-18T14:39:54.163Z,99592.84
2019-03-18T14:42:42.488Z,99603.23
2019-03-18T14:45:14.176Z,99603.23
2019-03-18T14:47:43.479Z,99617.33
2019-03-18T14:50:12.974Z,99620.73
2019-03-18T14:52:42.251Z,99633.42
2019-03-18T14:55:11.910Z,99649.83
2019-03-18T14:57:41.208Z,99652.54
2019-03-18T15:00:14.955Z,99647.12
2019-03-18T15:02:45.703Z,99651.47
2019-03-18T15:05:54.370Z,99660.17
2019-03-18T15:08:23.641Z,99669.20
2019-03-18T15:10:52.908Z,99668.74
2019-03-18T15:13:30.917Z,99688.08
2019-03-18T15:15:53.187Z,99692.98
2019-03-18T15:18:22.448Z,99698.07
2019-03-18T15:20:51.726Z,99705.77
2019-03-18T15:23:40.067Z,99724.94
2019-03-18T15:26:09.337Z,99724.94
2019-03-18T15:28:38.866Z,99733.39
2019-03-18T15:31:08.318Z,99757.77
2019-03-18T15:33:37.854Z,99756.17
2019-03-18T15:36:07.101Z,99756.78
2019-03-18T15:38:36.380Z,99765.73
2019-03-18T15:41:05.671Z,99759.41
2019-03-18T15:43:34.978Z,99770.20
2019-03-18T15:46:04.253Z,99780.41
2019-03-18T15:48:52.602Z,99796.09
2019-03-18T15:51:40.922Z,99796.09
2019-03-18T15:56:45.597Z,99806.91
2019-03-18T15:59:14.935Z,99812.96
2019-03-18T16:01:44.984Z,99827.86
2019-03-18T16:04:15.266Z,99838.45
2019-03-18T16:06:44.591Z,99831.27
2019-03-18T16:09:13.860Z,99844.38
2019-03-18T16:11:43.182Z,99846.23
2019-03-18T16:14:12.509Z,99856.56
2019-03-18T16:16:41.799Z,99864.36
2019-03-18T16:19:11.212Z,99878.34
2019-03-18T16:21:40.502Z,99886.00
2019-03-18T16:24:09.777Z,99897.41
2019-03-18T16:26:39.091Z,99909.84
2019-03-18T16:29:08.371Z,99912.69
2019-03-18T16:31:37.646Z,99918.24
2019-03-18T16:34:06.952Z,99914.53
2019-03-18T16:36:36.261Z,99934.14
2019-03-18T16:39:06.851Z,99942.94
2019-03-18T16:41:36.125Z,99944.55
2019-03-18T16:44:05.795Z,99948.86
2019-03-18T16:46:35.059Z,99956.73
2019-03-18T16:49:04.370Z,99972.69
2019-03-18T16:51:33.685Z,99984.56
2019-03-18T16:54:02.977Z,99992.58
2019-03-18T16:56:32.272Z,99994.03
2019-03-18T16:59:01.610Z,99994.03
2019-03-18T17:01:31.415Z,100004.28
2019-03-18T17:04:00.973Z,100006.91
2019-03-18T17:06:30.254Z,100025.79
2019-03-18T17:08:59.582Z,100030.31
2019-03-18T17:11:28.849Z,100022.00
2019-03-18T17:13:58.137Z,100031.25
2019-03-18T17:16:27.495Z,99997.58
2019-03-18T17:18:56.792Z,100040.63
2019-03-18T17:21:26.098Z,100052.19
2019-03-18T17:23:55.380Z,100056.12
2019-03-18T17:26:24.717Z,100062.02
2019-03-18T17:28:54.015Z,100069.00
2019-03-18T17:31:23.301Z,100071.20
2019-03-18T17:33:52.608Z,100085.38
2019-03-18T17:36:21.892Z,100086.31
2019-03-18T17:38:51.229Z,100104.93
2019-03-18T17:41:20.549Z,100100.69
2019-03-18T17:43:49.852Z,100105.42
2019-03-18T17:46:19.141Z,100117.86
2019-03-18T17:48:48.434Z,100123.23
2019-03-18T17:51:17.714Z,100128.61
2019-03-18T17:53:47.093Z,100139.28
2019-03-18T17:56:16.393Z,100143.47
2019-03-18T17:58:45.746Z,100146.28
2019-03-18T18:01:15.079Z,100156.88
2019-03-18T18:03:44.398Z,100160.05
2019-03-18T18:06:13.688Z,100172.41
2019-03-18T18:08:42.986Z,100179.53
2019-03-18T18:11:12.278Z,100186.32
2019-03-18T18:13:41.581Z,100179.45
2019-03-18T18:16:10.945Z,100201.77
2019-03-18T18:18:40.306Z,100203.70
2019-03-18T18:21:09.604Z,100209.36
2019-03-18T18:23:38.885Z,100212.61
2019-03-18T18:26:08.166Z,100221.12
2019-03-18T18:28:37.488Z,100220.58
2019-03-18T18:31:06.774Z,100225.05
2019-03-18T18:33:36.110Z,100239.45
2019-03-18T18:36:05.375Z,100240.87
2019-03-18T18:38:34.661Z,100235.88
2019-03-18T18:41:03.988Z,100249.02
2019-03-18T18:43:33.257Z,100257.94
2019-03-18T18:46:02.554Z,100269.44
2019-03-18T18:48:50.725Z,100273.09
2019-03-18T18:51:20.025Z,100273.16
2019-03-18T18:53:49.285Z,100279.44
2019-03-18T18:56:18.577Z,100286.52
2019-03-18T18:58:47.845Z,100294.48
2019-03-18T19:01:17.268Z,100296.17
2019-03-18T19:03:46.570Z,100303.00
2019-03-18T19:06:15.836Z,100308.23
2019-03-18T19:08:45.126Z,100324.36
2019-03-18T19:11:14.406Z,100319.63
2019-03-18T19:13:43.675Z,100323.94
2019-03-18T19:16:12.964Z,100324.86
2019-03-18T19:18:42.242Z,100330.25
2019-03-18T19:21:11.583Z,100339.08
2019-03-18T19:23:41.094Z,100342.69
2019-03-18T19:26:10.610Z,100351.06
2019-03-18T19:28:40.154Z,100353.30
2019-03-18T19:31:09.423Z,100355.91
2019-03-18T19:33:38.799Z,100357.61
2019-03-18T19:36:08.063Z,100363.76
2019-03-18T19:38:37.400Z,100378.65
2019-03-18T19:41:06.692Z,100382.29
2019-03-18T19:43:35.972Z,100387.91
2019-03-18T19:46:05.279Z,100387.09
2019-03-18T19:48:34.655Z,100389.32
2019-03-18T19:51:03.919Z,100387.83
2019-03-18T19:53:33.196Z,100395.78
2019-03-18T19:56:02.491Z,100395.30
2019-03-18T19:58:31.779Z,100404.51
2019-03-18T20:01:01.046Z,100404.17
2019-03-18T20:03:30.332Z,100413.47
2019-03-18T20:05:59.606Z,100413.47
2019-03-18T20:08:28.896Z,100428.83
2019-03-18T20:10:58.185Z,100433.68
2019-03-18T20:13:27.569Z,100434.26
2019-03-18T20:15:56.907Z,100448.36
2019-03-18T20:18:26.254Z,100444.53
2019-03-18T20:20:56.995Z,100446.85
2019-03-18T20:23:26.639Z,100457.92
2019-03-18T20:26:35.360Z,100465.95
2019-03-18T20:29:04.765Z,100467.84
2019-03-18T20:31:34.077Z,100483.63
2019-03-18T20:34:03.364Z,100493.44
2019-03-18T20:36:32.701Z,100489.90
2019-03-18T20:39:02.018Z,100494.05
2019-03-18T20:41:31.301Z,100500.67
2019-03-18T20:44:00.618Z,100506.86
2019-03-18T20:46:29.977Z,100511.34
2019-03-18T20:48:59.241Z,100516.70
2019-03-18T20:51:28.583Z,100520.70
2019-03-18T20:53:57.867Z,100532.15
2019-03-18T20:56:27.193Z,100520.44
2019-03-18T20:58:56.478Z,100536.23
2019-03-18T21:01:25.790Z,100542.42
2019-03-18T21:06:43.366Z,100557.50
2019-03-18T21:09:12.701Z,100582.52
2019-03-18T21:11:41.990Z,100579.08
2019-03-18T21:14:11.255Z,100585.68
2019-03-18T21:16:40.529Z,100587.97
2019-03-18T21:19:09.820Z,100591.14
2019-03-18T21:24:27.408Z,100593.94
2019-03-18T21:26:56.690Z,100595.83
2019-03-18T21:29:26.732Z,100602.86
2019-03-18T21:31:56.990Z,100607.76
2019-03-18T21:34:27.282Z,100611.82
2019-03-18T21:36:56.545Z,100625.81
2019-03-18T21:39:36.975Z,100631.10
2019-03-18T21:42:06.260Z,100631.20
2019-03-18T21:44:35.528Z,100632.69
2019-03-18T21:47:04.909Z,100641.48
2019-03-18T21:49:34.182Z,100656.44
2019-03-18T21:52:03.466Z,100661.19
2019-03-18T21:54:34.461Z,100664.30
2019-03-18T21:57:03.749Z,100681.34
2019-03-18T21:59:33.087Z,100663.92
2019-03-18T22:02:02.359Z,100674.39
2019-03-18T22:04:31.653Z,100670.58
2019-03-18T22:07:00.947Z,100688.03
2019-03-18T22:09:30.247Z,100688.50
2019-03-18T22:11:59.537Z,100693.78
2019-03-18T22:14:28.828Z,100688.69
2019-03-18T22:16:58.109Z,100710.84
2019-03-18T22:19:27.437Z,100719.02
2019-03-18T22:21:56.733Z,100722.98
2019-03-18T22:24:26.004Z,100724.78
2019-03-18T22:26:55.276Z,100724.35
2019-03-18T22:29:24.561Z,100728.76
2019-03-18T22:31:53.830Z,100744.45
2019-03-18T22:34:23.120Z,100740.17
2019-03-18T22:36:52.389Z,100754.05
2019-03-18T22:39:21.665Z,100759.27
2019-03-18T22:41:50.961Z,100757.64
2019-03-18T22:44:20.306Z,100758.63
2019-03-18T22:46:49.577Z,100763.05
2019-03-18T22:49:18.860Z,100766.58
2019-03-18T22:51:48.128Z,100773.13
2019-03-18T22:54:36.461Z,100781.41
2019-03-18T22:57:05.742Z,100781.35
2019-03-18T22:59:35.040Z,100784.39
2019-03-18T23:02:04.607Z,100779.62
2019-03-18T23:04:34.269Z,100776.17
2019-03-18T23:07:03.653Z,100783.17
2019-03-18T23:09:32.939Z,100785.83
2019-03-18T23:12:02.226Z,100787.62
2019-03-18T23:14:31.499Z,100784.33
2019-03-18T23:17:00.811Z,100805.60
2019-03-18T23:19:30.049Z,100799.97
2019-03-18T23:21:59.333Z,100800.94
2019-03-18T23:24:28.604Z,100811.43
2019-03-18T23:26:57.872Z,100823.61
2019-03-18T23:29:27.159Z,100836.77
2019-03-18T23:31:56.452Z,100838.17
2019-03-18T23:34:25.749Z,100841.98
2019-03-18T23:36:55.034Z,100845.03
2019-03-18T23:39:24.334Z,100844.61
2019-03-18T23:41:53.637Z,100843.77
2019-03-18T23:44:22.921Z,100852.04
2019-03-18T23:46:52.182Z,100852.08
2019-03-18T23:49:21.456Z,100848.22
2019-03-18T23:51:50.730Z,100849.95
2019-03-18T23:54:20.009Z,100856.92
2019-03-18T23:56:49.270Z,100860.37
2019-03-18T23:59:18.531Z,100869.05
